createdAt,value
2019-04-03T00:02:14.879Z,7.70
2019-04-03T00:04:43.460Z,7.80
2019-04-03T00:07:12.230Z,7.60
2019-04-03T00:09:40.728Z,7.50
2019-04-03T00:12:10.541Z,7.40
2019-04-03T00:14:42.225Z,7.30
2019-04-03T00:17:09.874Z,7.10
2019-04-03T00:19:38.450Z,7.20
2019-04-03T00:22:07.006Z,7.50
2019-04-03T00:24:35.582Z,7.70
2019-04-03T00:27:04.379Z,7.80
2019-04-03T00:29:32.979Z,7.90
2019-04-03T00:32:01.521Z,8.00
2019-04-03T00:34:30.104Z,8.00
2019-04-03T00:36:58.686Z,8.00
2019-04-03T00:39:27.239Z,7.80
2019-04-03T00:41:55.797Z,7.80
2019-04-03T00:44:24.835Z,7.70
2019-04-03T00:46:53.801Z,7.60
2019-04-03T00:49:25.709Z,7.50
2019-04-03T00:51:53.950Z,7.30
2019-04-03T00:54:22.505Z,7.10
2019-04-03T00:56:51.220Z,7.10
2019-04-03T00:59:19.845Z,7.10
2019-04-03T01:01:48.432Z,6.90
2019-04-03T01:04:16.994Z,7.00
2019-04-03T01:06:45.569Z,7.30
2019-04-03T01:09:14.125Z,7.40
2019-04-03T01:11:42.705Z,7.40
2019-04-03T01:14:11.269Z,7.30
2019-04-03T01:16:39.845Z,7.30
2019-04-03T01:19:08.447Z,7.70
2019-04-03T01:21:37.547Z,7.80
2019-04-03T01:24:08.316Z,7.90
2019-04-03T01:26:36.629Z,7.70
2019-04-03T01:29:05.253Z,7.70
2019-04-03T01:31:33.843Z,7.70
2019-04-03T01:34:02.398Z,7.70
2019-04-03T01:36:30.977Z,8.00
2019-04-03T01:38:59.532Z,8.20
2019-04-03T01:41:28.114Z,8.30
2019-04-03T01:43:56.677Z,8.30
2019-04-03T01:46:27.148Z,8.30
2019-04-03T01:48:58.022Z,8.20
2019-04-03T01:51:25.692Z,8.10
2019-04-03T01:53:54.254Z,8.10
2019-04-03T01:56:22.834Z,8.00
2019-04-03T01:58:51.395Z,8.00
2019-04-03T02:01:20.063Z,8.00
2019-04-03T02:03:48.530Z,8.00
2019-04-03T02:06:17.109Z,8.10
2019-04-03T02:08:45.661Z,8.00
2019-04-03T02:11:14.246Z,7.80
2019-04-03T02:13:42.806Z,7.50
2019-04-03T02:16:11.618Z,7.20
2019-04-03T02:18:40.245Z,7.20
2019-04-03T02:21:08.829Z,7.30
2019-04-03T02:23:37.394Z,7.40
2019-04-03T02:26:05.979Z,7.60
2019-04-03T02:28:35.195Z,7.70
2019-04-03T02:31:03.827Z,7.80
2019-04-03T02:33:32.392Z,7.70
2019-04-03T02:36:01.045Z,7.40
2019-04-03T02:38:29.525Z,7.10
2019-04-03T02:40:58.333Z,7.10
2019-04-03T02:43:26.878Z,7.10
2019-04-03T02:45:56.343Z,7.00
2019-04-03T02:48:25.513Z,6.60
2019-04-03T02:50:54.157Z,6.80
2019-04-03T02:53:22.794Z,7.10
2019-04-03T02:55:51.374Z,7.40
2019-04-03T02:58:21.950Z,7.20
2019-04-03T03:00:50.347Z,7.10
2019-04-03T03:03:18.926Z,7.30
2019-04-03T03:05:47.530Z,7.30
2019-04-03T03:08:16.934Z,7.50
2019-04-03T03:10:46.654Z,7.50
2019-04-03T03:13:15.846Z,7.70
2019-04-03T03:15:45.032Z,7.90
2019-04-03T03:18:14.290Z,8.10
2019-04-03T03:20:43.850Z,8.00
2019-04-03T03:23:12.975Z,7.70
2019-04-03T03:25:42.353Z,7.70
2019-04-03T03:28:13.193Z,7.50
2019-04-03T03:30:50.752Z,7.60
2019-04-03T03:33:31.002Z,7.70
2019-04-03T03:35:48.601Z,7.20
2019-04-03T03:38:16.207Z,7.00
2019-04-03T03:40:47.299Z,7.10
2019-04-03T03:43:16.207Z,7.00
2019-04-03T03:45:45.735Z,7.00
2019-04-03T03:48:14.818Z,6.90
2019-04-03T03:50:43.525Z,6.90
2019-04-03T03:53:13.195Z,7.20
2019-04-03T03:55:43.422Z,7.20
2019-04-03T03:58:13.453Z,6.80
2019-04-03T04:00:42.555Z,6.70
2019-04-03T04:03:11.675Z,6.70
2019-04-03T04:05:40.952Z,6.80
2019-04-03T04:08:11.340Z,6.80
2019-04-03T04:10:40.164Z,6.90
2019-04-03T04:13:13.346Z,6.70
2019-04-03T04:15:39.404Z,6.50
2019-04-03T04:18:08.349Z,6.60
2019-04-03T04:20:38.545Z,6.70
2019-04-03T04:23:07.715Z,6.80
2019-04-03T04:25:36.668Z,6.90
2019-04-03T04:28:06.696Z,6.90
2019-04-03T04:30:35.755Z,6.80
2019-04-03T04:33:04.356Z,6.90
2019-04-03T04:35:32.924Z,7.10
2019-04-03T04:38:01.497Z,7.30
2019-04-03T04:40:31.252Z,7.50
2019-04-03T04:43:03.192Z,7.60
2019-04-03T04:45:33.172Z,7.50
2019-04-03T04:48:00.850Z,7.40
2019-04-03T04:50:29.608Z,7.20
2019-04-03T04:52:58.791Z,7.00
2019-04-03T04:55:30.431Z,6.70
2019-04-03T04:57:58.269Z,6.70
2019-04-03T05:00:29.362Z,6.60
2019-04-03T05:02:57.037Z,6.70
2019-04-03T05:05:27.197Z,6.80
2019-04-03T05:07:55.890Z,6.80
2019-04-03T05:10:24.648Z,6.90
2019-04-03T05:12:53.226Z,6.80
2019-04-03T05:15:23.732Z,6.90
2019-04-03T05:17:52.012Z,7.10
2019-04-03T05:20:20.597Z,7.30
2019-04-03T05:22:49.258Z,7.40
2019-04-03T05:25:17.921Z,7.50
2019-04-03T05:27:46.498Z,7.60
2019-04-03T05:30:23.798Z,7.50
2019-04-03T05:32:52.382Z,7.50
2019-04-03T05:35:21.254Z,7.10
2019-04-03T05:37:50.925Z,7.10
2019-04-03T05:40:20.089Z,7.40
2019-04-03T05:42:48.675Z,7.50
2019-04-03T05:45:17.236Z,7.50
2019-04-03T05:47:45.817Z,7.30
2019-04-03T05:50:16.041Z,7.30
2019-04-03T05:52:44.731Z,7.20
2019-04-03T05:55:13.389Z,7.30
2019-04-03T05:57:44.912Z,7.50
2019-04-03T06:00:12.665Z,7.60
2019-04-03T06:02:41.251Z,7.70
2019-04-03T06:05:11.490Z,7.60
2019-04-03T06:07:40.046Z,7.50
2019-04-03T06:10:08.747Z,7.60
2019-04-03T06:12:37.856Z,7.70
2019-04-03T06:15:09.175Z,7.80
2019-04-03T06:17:37.899Z,8.10
2019-04-03T06:20:10.363Z,7.70
2019-04-03T06:22:37.077Z,7.60
2019-04-03T06:25:06.931Z,7.70
2019-04-03T06:27:35.562Z,7.90
2019-04-03T06:30:06.394Z,8.00
2019-04-03T06:32:34.975Z,7.90
2019-04-03T06:35:03.672Z,7.70
2019-04-03T06:37:32.268Z,7.90
2019-04-03T06:40:02.964Z,8.00
2019-04-03T06:42:31.048Z,8.20
2019-04-03T06:44:59.605Z,8.20
2019-04-03T06:47:28.186Z,8.20
2019-04-03T06:49:56.750Z,8.30
2019-04-03T06:52:25.506Z,8.50
2019-04-03T06:54:53.998Z,8.60
2019-04-03T06:57:22.586Z,8.70
2019-04-03T06:59:51.252Z,8.70
2019-04-03T07:02:20.364Z,8.80
2019-04-03T07:04:48.953Z,8.80
2019-04-03T07:07:31.733Z,8.80
2019-04-03T07:09:50.311Z,8.90
2019-04-03T07:12:17.983Z,8.90
2019-04-03T07:14:46.589Z,9.00
2019-04-03T07:17:15.101Z,9.10
2019-04-03T07:19:43.684Z,9.10
2019-04-03T07:22:12.234Z,9.10
2019-04-03T07:24:40.810Z,9.10
2019-04-03T07:27:09.369Z,9.20
2019-04-03T07:29:37.949Z,9.20
2019-04-03T07:32:06.520Z,9.20
2019-04-03T07:34:35.207Z,9.30
2019-04-03T07:37:04.344Z,9.50
2019-04-03T07:39:32.953Z,9.60
2019-04-03T07:42:01.571Z,9.60
2019-04-03T07:44:30.704Z,9.70
2019-04-03T07:46:59.357Z,9.70
2019-04-03T07:49:27.933Z,9.70
2019-04-03T07:51:56.587Z,9.90
2019-04-03T07:54:26.804Z,10.00
2019-04-03T07:56:57.421Z,9.90
2019-04-03T07:59:26.096Z,10.00
2019-04-03T08:01:55.148Z,10.10
2019-04-03T08:04:25.172Z,10.10
2019-04-03T08:06:53.915Z,10.20
2019-04-03T08:09:22.489Z,10.30
2019-04-03T08:11:51.288Z,10.30
2019-04-03T08:14:20.256Z,10.60
2019-04-03T08:16:48.889Z,10.90
2019-04-03T08:19:17.903Z,10.80
2019-04-03T08:21:46.554Z,11.00
2019-04-03T08:24:15.373Z,10.90
2019-04-03T08:26:44.101Z,11.00
2019-04-03T08:29:12.686Z,11.10
2019-04-03T08:31:43.921Z,11.20
2019-04-03T08:34:16.793Z,11.20
2019-04-03T08:36:41.705Z,11.20
2019-04-03T08:39:10.404Z,11.10
2019-04-03T08:41:39.047Z,10.90
2019-04-03T08:44:08.619Z,10.80
2019-04-03T08:46:37.697Z,10.60
2019-04-03T08:49:06.282Z,10.60
2019-04-03T08:51:34.982Z,10.40
2019-04-03T08:54:03.702Z,10.40
2019-04-03T08:56:32.267Z,10.50
2019-04-03T08:59:00.853Z,10.60
2019-04-03T09:01:29.421Z,10.60
2019-04-03T09:03:58.006Z,10.60
2019-04-03T09:06:26.570Z,10.40
2019-04-03T09:08:57.184Z,10.20
2019-04-03T09:11:25.447Z,10.20
2019-04-03T09:13:54.863Z,10.20
2019-04-03T09:16:24.449Z,10.10
2019-04-03T09:18:53.039Z,10.20
2019-04-03T09:21:21.738Z,10.20
2019-04-03T09:23:50.683Z,10.10
2019-04-03T09:26:19.247Z,10.50
2019-04-03T09:28:48.235Z,10.70
2019-04-03T09:31:19.035Z,10.70
2019-04-03T09:33:47.146Z,10.80
2019-04-03T09:36:15.782Z,10.60
2019-04-03T09:38:44.298Z,10.50
2019-04-03T09:41:13.076Z,10.80
2019-04-03T09:43:42.059Z,11.80
2019-04-03T09:46:10.714Z,12.20
2019-04-03T09:48:39.304Z,12.20
2019-04-03T09:51:09.623Z,11.90
2019-04-03T09:53:38.081Z,12.30
2019-04-03T09:56:08.071Z,12.40
2019-04-03T09:58:37.047Z,12.30
2019-04-03T10:01:06.162Z,12.40
2019-04-03T10:03:34.890Z,12.70
2019-04-03T10:06:03.847Z,12.90
2019-04-03T10:08:32.487Z,13.00
2019-04-03T10:11:01.397Z,13.10
2019-04-03T10:13:30.223Z,13.20
2019-04-03T10:15:58.843Z,13.20
2019-04-03T10:18:27.409Z,13.10
2019-04-03T10:20:55.996Z,13.10
2019-04-03T10:23:26.107Z,13.30
2019-04-03T10:25:54.816Z,13.40
2019-04-03T10:28:23.381Z,13.40
2019-04-03T10:30:52.837Z,13.50
2019-04-03T10:33:22.243Z,13.60
2019-04-03T10:35:51.464Z,13.60
2019-04-03T10:38:20.001Z,13.70
2019-04-03T10:40:48.728Z,13.70
2019-04-03T10:43:17.348Z,13.70
2019-04-03T10:45:46.362Z,13.60
2019-04-03T10:48:14.928Z,13.70
2019-04-03T10:50:43.677Z,13.80
2019-04-03T10:53:12.361Z,13.90
2019-04-03T10:55:40.960Z,13.90
2019-04-03T10:58:09.544Z,13.80
2019-04-03T11:00:38.256Z,13.80
2019-04-03T11:03:06.877Z,13.80
2019-04-03T11:05:35.467Z,13.70
2019-04-03T11:08:04.111Z,13.80
2019-04-03T11:10:33.107Z,13.90
2019-04-03T11:13:03.284Z,13.90
2019-04-03T11:15:31.974Z,13.80
2019-04-03T11:18:00.551Z,13.50
2019-04-03T11:20:29.436Z,13.20
2019-04-03T11:23:05.660Z,13.50
2019-04-03T11:25:28.422Z,13.60
2019-04-03T11:27:57.284Z,13.70
2019-04-03T11:30:26.418Z,13.60
2019-04-03T11:32:55.029Z,14.00
2019-04-03T11:35:25.346Z,14.10
2019-04-03T11:37:54.245Z,14.20
2019-04-03T11:40:25.022Z,14.20
2019-04-03T11:42:53.378Z,14.10
2019-04-03T11:45:22.357Z,14.10
2019-04-03T11:47:51.443Z,14.20
2019-04-03T11:50:23.459Z,13.80
2019-04-03T11:52:51.745Z,14.00
2019-04-03T11:55:21.091Z,13.70
2019-04-03T11:57:50.074Z,13.80
2019-04-03T12:00:20.956Z,14.00
2019-04-03T12:02:49.635Z,13.80
2019-04-03T12:05:20.738Z,12.70
2019-04-03T12:07:48.767Z,12.20
2019-04-03T12:10:17.843Z,11.60
2019-04-03T12:12:46.442Z,11.20
2019-04-03T12:15:16.420Z,11.20
2019-04-03T12:17:45.501Z,10.90
2019-04-03T12:20:16.536Z,11.70
2019-04-03T12:22:45.413Z,12.50
2019-04-03T12:25:15.092Z,12.60
2019-04-03T12:27:46.239Z,12.00
2019-04-03T12:30:15.046Z,12.60
2019-04-03T12:32:48.724Z,11.80
2019-04-03T12:35:14.341Z,11.80
2019-04-03T12:37:42.982Z,12.20
2019-04-03T12:40:12.102Z,12.20
2019-04-03T12:42:41.198Z,12.00
2019-04-03T12:45:10.717Z,11.40
2019-04-03T12:47:39.387Z,11.40
2019-04-03T12:50:08.760Z,12.10
2019-04-03T12:52:37.659Z,12.10
2019-04-03T12:55:07.659Z,12.00
2019-04-03T12:57:38.808Z,12.40
2019-04-03T13:00:11.460Z,12.50
2019-04-03T13:02:40.414Z,12.10
2019-04-03T13:05:09.105Z,11.70
2019-04-03T13:07:37.674Z,11.70
2019-04-03T13:10:09.051Z,12.80
2019-04-03T13:12:38.020Z,12.90
2019-04-03T13:15:10.703Z,13.30
2019-04-03T13:17:39.446Z,13.50
2019-04-03T13:20:08.459Z,13.20
2019-04-03T13:22:37.114Z,12.70
2019-04-03T13:25:08.641Z,12.50
2019-04-03T13:27:37.674Z,12.60
2019-04-03T13:30:12.418Z,13.40
2019-04-03T13:32:39.723Z,14.00
2019-04-03T13:35:09.194Z,12.90
2019-04-03T13:37:37.821Z,12.70
2019-04-03T13:40:10.481Z,13.80
2019-04-03T13:42:39.071Z,12.70
2019-04-03T13:45:09.425Z,11.90
2019-04-03T13:47:41.743Z,12.20
2019-04-03T13:50:09.550Z,11.90
2019-04-03T13:52:42.573Z,12.30
2019-04-03T13:55:08.960Z,12.90
2019-04-03T13:57:37.551Z,13.40
2019-04-03T14:00:19.691Z,14.00
2019-04-03T14:02:40.851Z,14.50
2019-04-03T14:05:09.834Z,13.10
2019-04-03T14:07:41.501Z,12.60
2019-04-03T14:10:09.919Z,11.70
2019-04-03T14:12:43.307Z,11.30
2019-04-03T14:15:09.772Z,11.10
2019-04-03T14:17:38.501Z,10.90
2019-04-03T14:20:08.754Z,11.00
2019-04-03T14:22:37.472Z,11.20
2019-04-03T14:25:18.485Z,11.40
2019-04-03T14:27:37.803Z,11.30
2019-04-03T14:30:11.612Z,11.10
2019-04-03T14:32:38.669Z,11.00
2019-04-03T14:35:33.645Z,11.00
2019-04-03T14:37:38.528Z,10.90
2019-04-03T14:40:11.514Z,11.20
2019-04-03T14:42:38.677Z,11.00
2019-04-03T14:45:09.118Z,11.00
2019-04-03T14:47:37.706Z,11.00
2019-04-03T14:50:07.230Z,10.90
2019-04-03T14:52:36.221Z,10.90
2019-04-03T14:55:16.407Z,11.10
2019-04-03T14:57:37.193Z,11.20
2019-04-03T15:00:22.980Z,10.90
2019-04-03T15:02:40.672Z,10.80
2019-04-03T15:05:10.695Z,10.70
2019-04-03T15:07:39.398Z,10.70
2019-04-03T15:10:08.494Z,10.70
2019-04-03T15:12:39.807Z,10.90
2019-04-03T15:15:09.063Z,10.80
2019-04-03T15:17:38.704Z,10.80
2019-04-03T15:20:09.480Z,10.80
2019-04-03T15:22:38.161Z,10.70
2019-04-03T15:25:07.422Z,10.60
2019-04-03T15:27:36.077Z,10.60
2019-04-03T15:30:10.506Z,10.70
2019-04-03T15:32:38.410Z,10.90
2019-04-03T15:35:07.244Z,10.90
2019-04-03T15:37:36.160Z,11.10
2019-04-03T15:40:06.233Z,11.10
2019-04-03T15:42:36.489Z,11.40
2019-04-03T15:45:07.688Z,12.20
2019-04-03T15:47:39.113Z,12.00
2019-04-03T15:50:07.857Z,12.20
2019-04-03T15:52:36.439Z,12.00
2019-04-03T15:55:08.694Z,11.50
2019-04-03T15:57:39.582Z,11.30
2019-04-03T16:00:15.792Z,11.10
2019-04-03T16:02:46.402Z,11.00
2019-04-03T16:05:14.963Z,10.90
2019-04-03T16:07:43.869Z,10.90
2019-04-03T16:10:13.053Z,11.00
2019-04-03T16:12:43.279Z,10.80
2019-04-03T16:15:12.734Z,10.70
2019-04-03T16:17:42.335Z,10.90
2019-04-03T16:20:11.905Z,11.00
2019-04-03T16:22:40.502Z,10.90
2019-04-03T16:25:09.308Z,10.80
2019-04-03T16:27:38.031Z,10.80
2019-04-03T16:30:09.692Z,10.80
2019-04-03T16:32:38.944Z,10.80
2019-04-03T16:35:07.971Z,10.70
2019-04-03T16:37:37.222Z,10.70
2019-04-03T16:40:08.057Z,10.70
2019-04-03T16:42:37.075Z,10.70
2019-04-03T16:45:09.452Z,10.60
2019-04-03T16:47:38.055Z,10.60
2019-04-03T16:50:09.782Z,10.50
2019-04-03T16:52:38.781Z,10.50
2019-04-03T16:55:07.976Z,10.50
2019-04-03T16:57:37.070Z,10.50
2019-04-03T17:00:10.323Z,10.50
2019-04-03T17:02:39.036Z,10.50
2019-04-03T17:05:10.442Z,10.50
2019-04-03T17:07:38.505Z,10.50
2019-04-03T17:10:09.467Z,10.50
2019-04-03T17:12:37.973Z,10.40
2019-04-03T17:15:09.606Z,10.40
2019-04-03T17:17:38.972Z,10.50
2019-04-03T17:20:08.458Z,10.70
2019-04-03T17:22:39.421Z,10.80
2019-04-03T17:25:07.949Z,10.70
2019-04-03T17:27:36.579Z,10.70
2019-04-03T17:30:11.264Z,10.90
2019-04-03T17:32:40.029Z,11.00
2019-04-03T17:35:09.035Z,11.10
2019-04-03T17:37:37.649Z,11.30
2019-04-03T17:40:11.333Z,11.40
2019-04-03T17:42:40.216Z,11.40
2019-04-03T17:45:09.136Z,11.30
2019-04-03T17:47:37.726Z,11.10
2019-04-03T17:50:07.637Z,11.00
2019-04-03T17:52:36.957Z,10.80
2019-04-03T17:55:10.990Z,10.80
2019-04-03T17:57:39.797Z,10.90
2019-04-03T18:00:13.987Z,11.00
2019-04-03T18:02:42.576Z,10.90
2019-04-03T18:05:11.688Z,10.80
2019-04-03T18:07:40.271Z,10.80
2019-04-03T18:10:12.446Z,10.70
2019-04-03T18:12:39.397Z,10.60
2019-04-03T18:15:09.610Z,10.60
2019-04-03T18:17:38.190Z,10.60
2019-04-03T18:20:07.894Z,10.60
2019-04-03T18:22:36.458Z,10.60
2019-04-03T18:25:08.257Z,10.50
2019-04-03T18:27:37.348Z,10.50
2019-04-03T18:30:11.309Z,10.60
2019-04-03T18:32:39.098Z,10.50
2019-04-03T18:35:08.327Z,10.40
2019-04-03T18:37:36.898Z,10.50
2019-04-03T18:40:09.833Z,10.40
2019-04-03T18:42:38.394Z,10.40
2019-04-03T18:45:07.476Z,10.30
2019-04-03T18:47:41.404Z,10.30
2019-04-03T18:50:09.813Z,10.30
2019-04-03T18:52:38.710Z,10.20
2019-04-03T18:55:07.882Z,10.20
2019-04-03T18:57:36.446Z,10.20
2019-04-03T19:00:08.109Z,10.20
2019-04-03T19:02:36.665Z,10.20
2019-04-03T19:05:09.908Z,10.20
2019-04-03T19:07:37.747Z,10.20
2019-04-03T19:10:08.476Z,10.20
2019-04-03T19:12:37.042Z,10.20
2019-04-03T19:15:06.961Z,10.20
2019-04-03T19:17:35.530Z,10.20
2019-04-03T19:20:10.633Z,10.10
2019-04-03T19:22:35.758Z,10.10
2019-04-03T19:25:06.889Z,10.10
2019-04-03T19:27:35.456Z,10.10
2019-04-03T19:30:07.086Z,10.10
2019-04-03T19:32:35.508Z,10.10
2019-04-03T19:35:09.194Z,10.20
2019-04-03T19:37:36.573Z,10.20
2019-04-03T19:40:09.457Z,10.20
2019-04-03T19:42:37.328Z,10.30
2019-04-03T19:45:07.545Z,10.20
2019-04-03T19:47:36.105Z,10.30
2019-04-03T19:50:07.554Z,10.30
2019-04-03T19:52:37.434Z,10.30
2019-04-03T19:55:09.258Z,10.30
2019-04-03T19:57:37.824Z,10.30
2019-04-03T20:00:08.414Z,10.20
2019-04-03T20:02:38.237Z,10.20
2019-04-03T20:05:07.581Z,10.10
2019-04-03T20:07:36.138Z,10.20
2019-04-03T20:10:12.371Z,10.20
2019-04-03T20:12:40.932Z,10.20
2019-04-03T20:15:10.453Z,10.10
2019-04-03T20:17:39.030Z,10.20
2019-04-03T20:20:08.348Z,10.10
2019-04-03T20:22:37.840Z,10.10
2019-04-03T20:25:07.491Z,10.10
2019-04-03T20:27:36.606Z,10.10
2019-04-03T20:30:08.660Z,10.20
2019-04-03T20:32:40.077Z,10.20
2019-04-03T20:35:08.090Z,10.20
2019-04-03T20:37:36.665Z,10.20
2019-04-03T20:40:06.280Z,10.10
2019-04-03T20:42:34.837Z,10.10
2019-04-03T20:45:04.197Z,10.10
2019-04-03T20:47:32.755Z,10.10
2019-04-03T20:50:01.343Z,10.10
2019-04-03T20:52:29.908Z,10.10
2019-04-03T20:54:58.489Z,10.10
2019-04-03T20:57:27.059Z,10.00
2019-04-03T21:00:02.127Z,10.00
2019-04-03T21:02:25.944Z,10.00
2019-04-03T21:04:54.545Z,10.00
2019-04-03T21:07:24.447Z,10.00
2019-04-03T21:09:53.188Z,10.10
2019-04-03T21:12:21.754Z,10.00
2019-04-03T21:14:50.337Z,10.00
2019-04-03T21:17:19.418Z,9.90
2019-04-03T21:19:48.085Z,9.90
2019-04-03T21:22:16.650Z,9.90
2019-04-03T21:24:45.224Z,9.90
2019-04-03T21:27:13.784Z,9.90
2019-04-03T21:29:42.374Z,10.00
2019-04-03T21:32:10.943Z,10.00
2019-04-03T21:34:39.528Z,10.10
2019-04-03T21:37:09.557Z,10.10
2019-04-03T21:39:38.327Z,10.00
2019-04-03T21:42:06.912Z,10.00
2019-04-03T21:44:35.460Z,10.00
2019-04-03T21:47:04.090Z,10.10
2019-04-03T21:49:32.684Z,10.10
2019-04-03T21:52:01.250Z,10.20
2019-04-03T21:54:29.829Z,10.20
2019-04-03T21:56:58.389Z,10.10
2019-04-03T21:59:26.980Z,10.10
2019-04-03T22:01:55.710Z,10.00
2019-04-03T22:04:24.293Z,9.90
2019-04-03T22:06:52.858Z,9.90
2019-04-03T22:09:21.424Z,9.90
2019-04-03T22:11:50.008Z,9.90
2019-04-03T22:14:18.569Z,9.90
2019-04-03T22:16:47.152Z,9.80
2019-04-03T22:19:15.715Z,9.90
2019-04-03T22:21:44.306Z,9.90
2019-04-03T22:24:12.857Z,9.90
2019-04-03T22:26:41.471Z,9.90
2019-04-03T22:29:10.004Z,9.90
2019-04-03T22:31:38.586Z,9.80
2019-04-03T22:34:07.211Z,9.80
2019-04-03T22:36:35.784Z,9.80
2019-04-03T22:39:07.711Z,9.70
2019-04-03T22:41:35.981Z,9.70
2019-04-03T22:44:04.710Z,9.70
2019-04-03T22:46:33.301Z,9.70
2019-04-03T22:49:01.861Z,9.70
2019-04-03T22:51:30.446Z,9.80
2019-04-03T22:53:59.015Z,9.90
2019-04-03T22:56:27.591Z,9.90
2019-04-03T22:58:56.150Z,9.90
2019-04-03T23:01:24.733Z,9.70
2019-04-03T23:03:53.295Z,9.60
2019-04-03T23:06:21.940Z,9.60
2019-04-03T23:08:53.510Z,9.70
2019-04-03T23:11:20.741Z,9.70
2019-04-03T23:13:49.309Z,9.60
2019-04-03T23:16:17.903Z,9.60
2019-04-03T23:18:46.921Z,9.50
2019-04-03T23:21:16.016Z,9.50
2019-04-03T23:23:44.507Z,9.50
2019-04-03T23:26:13.080Z,9.40
2019-04-03T23:28:41.645Z,9.40
2019-04-03T23:31:11.173Z,9.40
2019-04-03T23:33:40.437Z,9.40
2019-04-03T23:36:09.012Z,9.40
2019-04-03T23:38:37.584Z,9.40
2019-04-03T23:41:06.784Z,9.30
2019-04-03T23:43:35.417Z,9.30
2019-04-03T23:46:04.068Z,9.30
2019-04-03T23:48:32.638Z,9.30
2019-04-03T23:51:01.222Z,9.30
2019-04-03T23:53:31.949Z,9.20
2019-04-03T23:56:00.009Z,9.20
2019-04-03T23:58:28.578Z,9.10
